Boxboro, Massachusetts
Current Conditions -  °F | °C
As of 12:56 PM on Thursday 29 Jan 2015 (Local Time) from KBED Reporting Station
Clear Clear  
Wind Chill: 30°   Ceiling: Unl
Heat Index: 30°   Visibility: 10mi
Dew Point:   Wind: 0mph
Humidity: 35%   Direction: NA
Pressure: 30.23"   Gusts: NA
Location:  42.4884°N, 71.5177°W
Report Text: KBED 291756Z 00000KT 10SM CLR M01/M15 A3023 RMK AO2 SLP254 T10111150 11011 21239 58030
Loading
Personal Weather Stations






























Interactive Weather Map New forecast layout! Learn more

10-Day Weather Forecast

Advertisements
Track Severe Weather on mobile